sensor_id;sensor_type;location;lat;lon;timestamp;temperature;humidity
7004;DHT22;3542;48.812;9.146;2023-01-23T00:00:28;1.00;99.90
7004;DHT22;3542;48.812;9.146;2023-01-23T00:02:55;1.00;99.90
7004;DHT22;3542;48.812;9.146;2023-01-23T00:05:21;1.00;99.90
7004;DHT22;3542;48.812;9.146;2023-01-23T00:07:46;1.00;99.90
7004;DHT22;3542;48.812;9.146;2023-01-23T00:10:12;1.00;99.90
7004;DHT22;3542;48.812;9.146;2023-01-23T00:12:40;0.90;99.90
7004;DHT22;3542;48.812;9.146;2023-01-23T00:15:07;1.00;99.90
7004;DHT22;3542;48.812;9.146;2023-01-23T00:17:33;1.00;99.90
7004;DHT22;3542;48.812;9.146;2023-01-23T00:19:59;1.00;99.90
7004;DHT22;3542;48.812;9.146;2023-01-23T00:22:25;1.00;99.90
7004;DHT22;3542;48.812;9.146;2023-01-23T00:24:50;1.00;99.90
7004;DHT22;3542;48.812;9.146;2023-01-23T00:27:16;1.00;99.90
7004;DHT22;3542;48.812;9.146;2023-01-23T00:29:41;1.00;99.90
7004;DHT22;3542;48.812;9.146;2023-01-23T00:32:07;1.00;99.90
7004;DHT22;3542;48.812;9.146;2023-01-23T00:34:32;1.00;99.90
7004;DHT22;3542;48.812;9.146;2023-01-23T00:36:58;1.10;99.90
7004;DHT22;3542;48.812;9.146;2023-01-23T00:39:23;1.10;99.90
7004;DHT22;3542;48.812;9.146;2023-01-23T00:41:49;1.00;99.90
7004;DHT22;3542;48.812;9.146;2023-01-23T00:44:15;1.00;99.90
7004;DHT22;3542;48.812;9.146;2023-01-23T00:46:41;1.00;99.90
7004;DHT22;3542;48.812;9.146;2023-01-23T00:49:07;1.00;99.90
7004;DHT22;3542;48.812;9.146;2023-01-23T00:51:33;0.90;99.90
7004;DHT22;3542;48.812;9.146;2023-01-23T00:53:59;1.00;99.90
7004;DHT22;3542;48.812;9.146;2023-01-23T00:56:25;1.10;99.90
7004;DHT22;3542;48.812;9.146;2023-01-23T00:58:50;1.20;99.90
7004;DHT22;3542;48.812;9.146;2023-01-23T01:01:16;1.20;99.90
7004;DHT22;3542;48.812;9.146;2023-01-23T01:03:42;1.20;99.90
7004;DHT22;3542;48.812;9.146;2023-01-23T01:06:08;1.20;99.90
7004;DHT22;3542;48.812;9.146;2023-01-23T01:08:34;1.10;99.90
7004;DHT22;3542;48.812;9.146;2023-01-23T01:11:00;1.10;99.90
7004;DHT22;3542;48.812;9.146;2023-01-23T01:13:26;1.20;99.90
7004;DHT22;3542;48.812;9.146;2023-01-23T01:15:52;1.20;99.90
7004;DHT22;3542;48.812;9.146;2023-01-23T01:18:20;1.20;99.90
7004;DHT22;3542;48.812;9.146;2023-01-23T01:20:46;1.20;99.90
7004;DHT22;3542;48.812;9.146;2023-01-23T01:23:12;1.10;99.90
7004;DHT22;3542;48.812;9.146;2023-01-23T01:25:37;1.10;99.90
7004;DHT22;3542;48.812;9.146;2023-01-23T01:28:03;1.20;99.90
7004;DHT22;3542;48.812;9.146;2023-01-23T01:30:29;1.10;99.90
7004;DHT22;3542;48.812;9.146;2023-01-23T01:32:55;1.10;99.90
7004;DHT22;3542;48.812;9.146;2023-01-23T01:35:21;1.10;99.90
7004;DHT22;3542;48.812;9.146;2023-01-23T01:37:47;1.10;99.90
7004;DHT22;3542;48.812;9.146;2023-01-23T01:40:19;1.10;99.90
7004;DHT22;3542;48.812;9.146;2023-01-23T01:42:48;1.10;99.90
7004;DHT22;3542;48.812;9.146;2023-01-23T01:45:54;1.10;99.90
7004;DHT22;3542;48.812;9.146;2023-01-23T01:51:07;1.10;99.90
7004;DHT22;3542;48.812;9.146;2023-01-23T01:53:34;1.20;99.90
7004;DHT22;3542;48.812;9.146;2023-01-23T01:56:02;1.10;99.90
7004;DHT22;3542;48.812;9.146;2023-01-23T01:58:28;1.10;99.90
7004;DHT22;3542;48.812;9.146;2023-01-23T03:31:31;1.10;99.90
7004;DHT22;3542;48.812;9.146;2023-01-23T03:33:56;1.20;99.90
7004;DHT22;3542;48.812;9.146;2023-01-23T03:36:22;1.20;99.90
7004;DHT22;3542;48.812;9.146;2023-01-23T03:38:47;1.20;99.90
7004;DHT22;3542;48.812;9.146;2023-01-23T03:41:31;1.10;99.90
7004;DHT22;3542;48.812;9.146;2023-01-23T03:43:57;1.10;99.90
7004;DHT22;3542;48.812;9.146;2023-01-23T03:46:22;1.10;99.90
7004;DHT22;3542;48.812;9.146;2023-01-23T03:48:48;1.10;99.90
7004;DHT22;3542;48.812;9.146;2023-01-23T03:51:13;1.10;99.90
7004;DHT22;3542;48.812;9.146;2023-01-23T03:53:39;1.10;99.90
7004;DHT22;3542;48.812;9.146;2023-01-23T03:56:05;1.00;99.90
7004;DHT22;3542;48.812;9.146;2023-01-23T03:58:31;1.00;99.90
7004;DHT22;3542;48.812;9.146;2023-01-23T04:00:56;1.10;99.90
7004;DHT22;3542;48.812;9.146;2023-01-23T04:03:22;1.10;99.90
7004;DHT22;3542;48.812;9.146;2023-01-23T04:05:47;1.10;99.90
7004;DHT22;3542;48.812;9.146;2023-01-23T04:08:13;1.00;99.90
7004;DHT22;3542;48.812;9.146;2023-01-23T04:10:38;1.00;99.90
7004;DHT22;3542;48.812;9.146;2023-01-23T04:13:04;1.00;99.90
7004;DHT22;3542;48.812;9.146;2023-01-23T04:15:31;1.00;99.90
7004;DHT22;3542;48.812;9.146;2023-01-23T04:17:57;1.00;99.90
7004;DHT22;3542;48.812;9.146;2023-01-23T04:20:23;1.00;99.90
7004;DHT22;3542;48.812;9.146;2023-01-23T04:22:48;1.00;99.90
7004;DHT22;3542;48.812;9.146;2023-01-23T04:25:14;1.10;99.90
7004;DHT22;3542;48.812;9.146;2023-01-23T04:27:39;1.00;99.90
7004;DHT22;3542;48.812;9.146;2023-01-23T04:30:05;1.00;99.90
7004;DHT22;3542;48.812;9.146;2023-01-23T04:32:31;1.10;99.90
7004;DHT22;3542;48.812;9.146;2023-01-23T04:34:56;1.10;99.90
7004;DHT22;3542;48.812;9.146;2023-01-23T04:37:22;1.10;99.90
7004;DHT22;3542;48.812;9.146;2023-01-23T04:39:47;1.10;99.90
7004;DHT22;3542;48.812;9.146;2023-01-23T04:42:13;1.10;99.90
7004;DHT22;3542;48.812;9.146;2023-01-23T04:44:38;1.20;99.90
7004;DHT22;3542;48.812;9.146;2023-01-23T04:47:04;1.10;99.90
7004;DHT22;3542;48.812;9.146;2023-01-23T04:49:29;1.10;99.90
7004;DHT22;3542;48.812;9.146;2023-01-23T04:51:55;1.10;99.90
7004;DHT22;3542;48.812;9.146;2023-01-23T04:54:21;1.10;99.90
7004;DHT22;3542;48.812;9.146;2023-01-23T04:56:47;1.00;99.90
7004;DHT22;3542;48.812;9.146;2023-01-23T04:59:13;1.00;99.90
7004;DHT22;3542;48.812;9.146;2023-01-23T05:01:39;1.10;99.90
7004;DHT22;3542;48.812;9.146;2023-01-23T05:04:04;1.10;99.90
7004;DHT22;3542;48.812;9.146;2023-01-23T05:06:30;1.00;99.90
7004;DHT22;3542;48.812;9.146;2023-01-23T05:08:55;1.00;99.90
7004;DHT22;3542;48.812;9.146;2023-01-23T05:11:21;1.00;99.90
7004;DHT22;3542;48.812;9.146;2023-01-23T05:13:47;1.00;99.90
7004;DHT22;3542;48.812;9.146;2023-01-23T05:16:12;1.00;99.90
7004;DHT22;3542;48.812;9.146;2023-01-23T05:18:38;1.10;99.90
7004;DHT22;3542;48.812;9.146;2023-01-23T05:21:03;1.10;99.90
7004;DHT22;3542;48.812;9.146;2023-01-23T05:23:29;1.10;99.90
7004;DHT22;3542;48.812;9.146;2023-01-23T05:25:54;1.10;99.90
7004;DHT22;3542;48.812;9.146;2023-01-23T05:28:20;1.00;99.90
7004;DHT22;3542;48.812;9.146;2023-01-23T05:30:46;1.10;99.90
7004;DHT22;3542;48.812;9.146;2023-01-23T05:33:11;1.10;99.90
7004;DHT22;3542;48.812;9.146;2023-01-23T05:35:40;1.10;99.90
7004;DHT22;3542;48.812;9.146;2023-01-23T05:38:05;1.20;99.90
7004;DHT22;3542;48.812;9.146;2023-01-23T05:40:31;1.10;99.90
7004;DHT22;3542;48.812;9.146;2023-01-23T05:42:57;1.10;99.90
7004;DHT22;3542;48.812;9.146;2023-01-23T05:45:23;1.10;99.90
7004;DHT22;3542;48.812;9.146;2023-01-23T05:47:48;1.10;99.90
7004;DHT22;3542;48.812;9.146;2023-01-23T05:50:18;1.10;99.90
7004;DHT22;3542;48.812;9.146;2023-01-23T05:52:45;1.10;99.90
7004;DHT22;3542;48.812;9.146;2023-01-23T05:55:11;1.10;99.90
7004;DHT22;3542;48.812;9.146;2023-01-23T05:57:36;1.10;99.90
7004;DHT22;3542;48.812;9.146;2023-01-23T06:00:04;1.10;99.90
7004;DHT22;3542;48.812;9.146;2023-01-23T06:02:29;1.10;99.90
7004;DHT22;3542;48.812;9.146;2023-01-23T06:04:55;1.10;99.90
7004;DHT22;3542;48.812;9.146;2023-01-23T06:07:20;1.10;99.90
7004;DHT22;3542;48.812;9.146;2023-01-23T06:09:46;1.10;99.90
7004;DHT22;3542;48.812;9.146;2023-01-23T06:12:12;1.10;99.90
7004;DHT22;3542;48.812;9.146;2023-01-23T06:14:37;1.10;99.90
7004;DHT22;3542;48.812;9.146;2023-01-23T06:17:03;1.10;99.90
7004;DHT22;3542;48.812;9.146;2023-01-23T06:19:29;1.20;99.90
7004;DHT22;3542;48.812;9.146;2023-01-23T06:21:54;1.10;99.90
7004;DHT22;3542;48.812;9.146;2023-01-23T06:24:20;1.10;99.90
7004;DHT22;3542;48.812;9.146;2023-01-23T06:26:46;1.10;99.90
7004;DHT22;3542;48.812;9.146;2023-01-23T06:29:11;1.10;99.90
7004;DHT22;3542;48.812;9.146;2023-01-23T06:31:37;1.10;99.90
7004;DHT22;3542;48.812;9.146;2023-01-23T06:34:02;1.10;99.90
7004;DHT22;3542;48.812;9.146;2023-01-23T06:36:28;1.10;99.90
7004;DHT22;3542;48.812;9.146;2023-01-23T06:38:54;1.20;99.90
7004;DHT22;3542;48.812;9.146;2023-01-23T06:41:20;1.20;99.90
7004;DHT22;3542;48.812;9.146;2023-01-23T06:43:45;1.10;99.90
7004;DHT22;3542;48.812;9.146;2023-01-23T06:46:11;1.10;99.90
7004;DHT22;3542;48.812;9.146;2023-01-23T06:48:37;1.10;99.90
7004;DHT22;3542;48.812;9.146;2023-01-23T06:51:03;1.10;99.90
7004;DHT22;3542;48.812;9.146;2023-01-23T06:53:30;1.10;99.90
7004;DHT22;3542;48.812;9.146;2023-01-23T06:56:06;1.10;99.90
7004;DHT22;3542;48.812;9.146;2023-01-23T06:58:33;1.10;99.90
7004;DHT22;3542;48.812;9.146;2023-01-23T07:00:58;1.20;99.90
7004;DHT22;3542;48.812;9.146;2023-01-23T07:03:24;1.20;99.90
7004;DHT22;3542;48.812;9.146;2023-01-23T07:05:50;1.20;99.90
7004;DHT22;3542;48.812;9.146;2023-01-23T07:08:16;1.30;99.90
7004;DHT22;3542;48.812;9.146;2023-01-23T07:10:42;1.30;99.90
7004;DHT22;3542;48.812;9.146;2023-01-23T07:13:09;1.30;99.90
7004;DHT22;3542;48.812;9.146;2023-01-23T07:15:35;1.30;99.90
7004;DHT22;3542;48.812;9.146;2023-01-23T07:18:01;1.30;99.90
7004;DHT22;3542;48.812;9.146;2023-01-23T07:20:27;1.30;99.90
7004;DHT22;3542;48.812;9.146;2023-01-23T07:22:54;1.30;99.90
7004;DHT22;3542;48.812;9.146;2023-01-23T07:25:21;1.30;99.90
7004;DHT22;3542;48.812;9.146;2023-01-23T07:27:46;1.30;99.90
7004;DHT22;3542;48.812;9.146;2023-01-23T07:30:12;1.30;99.90
7004;DHT22;3542;48.812;9.146;2023-01-23T07:32:38;1.30;99.90
7004;DHT22;3542;48.812;9.146;2023-01-23T07:35:04;1.30;99.90
7004;DHT22;3542;48.812;9.146;2023-01-23T07:37:29;1.30;99.90
7004;DHT22;3542;48.812;9.146;2023-01-23T07:39:55;1.30;99.90
7004;DHT22;3542;48.812;9.146;2023-01-23T07:42:20;1.30;99.90
7004;DHT22;3542;48.812;9.146;2023-01-23T07:44:46;1.30;99.90
7004;DHT22;3542;48.812;9.146;2023-01-23T07:47:12;1.30;99.90
7004;DHT22;3542;48.812;9.146;2023-01-23T07:49:37;1.30;99.90
7004;DHT22;3542;48.812;9.146;2023-01-23T07:52:03;1.40;99.90
7004;DHT22;3542;48.812;9.146;2023-01-23T07:54:29;1.40;99.90
7004;DHT22;3542;48.812;9.146;2023-01-23T07:56:54;1.40;99.90
7004;DHT22;3542;48.812;9.146;2023-01-23T07:59:20;1.40;99.90
7004;DHT22;3542;48.812;9.146;2023-01-23T08:01:46;1.40;99.90
7004;DHT22;3542;48.812;9.146;2023-01-23T08:04:13;1.40;99.90
7004;DHT22;3542;48.812;9.146;2023-01-23T08:06:38;1.40;99.90
7004;DHT22;3542;48.812;9.146;2023-01-23T08:09:04;1.40;99.90
7004;DHT22;3542;48.812;9.146;2023-01-23T08:11:29;1.50;99.90
7004;DHT22;3542;48.812;9.146;2023-01-23T08:13:55;1.40;99.90
7004;DHT22;3542;48.812;9.146;2023-01-23T08:16:21;1.40;99.90
7004;DHT22;3542;48.812;9.146;2023-01-23T08:18:46;1.50;99.90
7004;DHT22;3542;48.812;9.146;2023-01-23T08:21:12;1.40;99.90
7004;DHT22;3542;48.812;9.146;2023-01-23T08:23:37;1.40;99.90
7004;DHT22;3542;48.812;9.146;2023-01-23T08:26:05;1.40;99.90
7004;DHT22;3542;48.812;9.146;2023-01-23T08:28:31;1.40;99.90
7004;DHT22;3542;48.812;9.146;2023-01-23T08:31:01;1.50;99.90
7004;DHT22;3542;48.812;9.146;2023-01-23T08:33:26;1.60;99.90
7004;DHT22;3542;48.812;9.146;2023-01-23T08:35:54;1.70;99.90
7004;DHT22;3542;48.812;9.146;2023-01-23T08:38:21;1.60;99.90
7004;DHT22;3542;48.812;9.146;2023-01-23T08:40:47;1.80;99.90
7004;DHT22;3542;48.812;9.146;2023-01-23T08:43:14;1.70;99.90
7004;DHT22;3542;48.812;9.146;2023-01-23T08:45:40;1.70;99.90
7004;DHT22;3542;48.812;9.146;2023-01-23T08:48:07;1.70;99.90
7004;DHT22;3542;48.812;9.146;2023-01-23T08:50:33;1.70;99.90
7004;DHT22;3542;48.812;9.146;2023-01-23T08:52:58;1.80;99.90
7004;DHT22;3542;48.812;9.146;2023-01-23T08:55:24;1.90;99.90
7004;DHT22;3542;48.812;9.146;2023-01-23T08:57:50;1.90;99.90
7004;DHT22;3542;48.812;9.146;2023-01-23T09:00:16;1.90;99.90
7004;DHT22;3542;48.812;9.146;2023-01-23T09:02:42;2.00;99.90
7004;DHT22;3542;48.812;9.146;2023-01-23T09:05:08;2.10;99.90
7004;DHT22;3542;48.812;9.146;2023-01-23T09:07:33;2.20;99.90
7004;DHT22;3542;48.812;9.146;2023-01-23T09:10:03;2.40;99.90
7004;DHT22;3542;48.812;9.146;2023-01-23T09:12:29;2.50;99.90
7004;DHT22;3542;48.812;9.146;2023-01-23T09:14:57;2.60;99.90
7004;DHT22;3542;48.812;9.146;2023-01-23T09:17:22;2.50;99.90
7004;DHT22;3542;48.812;9.146;2023-01-23T09:19:47;2.50;99.90
7004;DHT22;3542;48.812;9.146;2023-01-23T09:22:13;2.40;99.90
7004;DHT22;3542;48.812;9.146;2023-01-23T09:24:38;2.40;99.90
7004;DHT22;3542;48.812;9.146;2023-01-23T09:27:04;2.60;99.90
7004;DHT22;3542;48.812;9.146;2023-01-23T09:29:29;2.80;99.90
7004;DHT22;3542;48.812;9.146;2023-01-23T09:31:56;2.70;99.90
7004;DHT22;3542;48.812;9.146;2023-01-23T09:34:22;2.70;99.90
7004;DHT22;3542;48.812;9.146;2023-01-23T09:36:48;2.80;99.90
7004;DHT22;3542;48.812;9.146;2023-01-23T09:39:13;2.60;99.90
7004;DHT22;3542;48.812;9.146;2023-01-23T09:41:40;2.40;99.90
7004;DHT22;3542;48.812;9.146;2023-01-23T09:44:14;2.20;99.90
7004;DHT22;3542;48.812;9.146;2023-01-23T09:52:01;2.00;99.90
7004;DHT22;3542;48.812;9.146;2023-01-23T09:56:54;2.00;99.90
7004;DHT22;3542;48.812;9.146;2023-01-23T09:59:36;2.00;99.90
7004;DHT22;3542;48.812;9.146;2023-01-23T10:02:19;2.00;99.90
7004;DHT22;3542;48.812;9.146;2023-01-23T10:04:46;2.00;99.90
7004;DHT22;3542;48.812;9.146;2023-01-23T10:15:35;2.20;99.90
7004;DHT22;3542;48.812;9.146;2023-01-23T10:21:04;2.50;99.90
7004;DHT22;3542;48.812;9.146;2023-01-23T10:26:11;2.50;99.90
7004;DHT22;3542;48.812;9.146;2023-01-23T10:28:39;2.40;99.90
7004;DHT22;3542;48.812;9.146;2023-01-23T10:34:45;2.30;99.90
7004;DHT22;3542;48.812;9.146;2023-01-23T10:37:18;2.60;99.90
7004;DHT22;3542;48.812;9.146;2023-01-23T10:39:58;3.00;99.90
7004;DHT22;3542;48.812;9.146;2023-01-23T10:42:26;3.10;99.90
7004;DHT22;3542;48.812;9.146;2023-01-23T10:44:52;3.10;99.90
7004;DHT22;3542;48.812;9.146;2023-01-23T10:47:40;3.00;99.90
7004;DHT22;3542;48.812;9.146;2023-01-23T10:50:06;3.00;99.90
7004;DHT22;3542;48.812;9.146;2023-01-23T10:52:37;2.90;99.90
7004;DHT22;3542;48.812;9.146;2023-01-23T10:57:53;2.70;99.90
7004;DHT22;3542;48.812;9.146;2023-01-23T11:00:35;2.70;99.90
7004;DHT22;3542;48.812;9.146;2023-01-23T11:05:53;2.50;99.90
7004;DHT22;3542;48.812;9.146;2023-01-23T11:08:38;2.50;99.90
7004;DHT22;3542;48.812;9.146;2023-01-23T11:11:19;2.40;99.90
7004;DHT22;3542;48.812;9.146;2023-01-23T11:13:46;2.30;99.90
7004;DHT22;3542;48.812;9.146;2023-01-23T11:16:17;2.40;99.90
7004;DHT22;3542;48.812;9.146;2023-01-23T11:18:52;2.30;99.90
7004;DHT22;3542;48.812;9.146;2023-01-23T11:21:26;2.30;99.90
7004;DHT22;3542;48.812;9.146;2023-01-23T11:24:08;2.30;99.90
7004;DHT22;3542;48.812;9.146;2023-01-23T11:26:35;2.40;99.90
7004;DHT22;3542;48.812;9.146;2023-01-23T11:29:01;2.40;99.90
7004;DHT22;3542;48.812;9.146;2023-01-23T11:31:29;2.50;99.90
7004;DHT22;3542;48.812;9.146;2023-01-23T11:34:12;2.60;99.90
7004;DHT22;3542;48.812;9.146;2023-01-23T11:41:47;2.70;99.90
7004;DHT22;3542;48.812;9.146;2023-01-23T11:44:18;2.70;99.90
7004;DHT22;3542;48.812;9.146;2023-01-23T11:49:48;2.70;99.90
7004;DHT22;3542;48.812;9.146;2023-01-23T11:52:48;2.80;99.90
7004;DHT22;3542;48.812;9.146;2023-01-23T11:55:34;2.70;99.90
7004;DHT22;3542;48.812;9.146;2023-01-23T12:07:19;2.70;99.90
7004;DHT22;3542;48.812;9.146;2023-01-23T12:13:11;2.40;99.90
7004;DHT22;3542;48.812;9.146;2023-01-23T12:15:45;2.40;99.90
7004;DHT22;3542;48.812;9.146;2023-01-23T12:21:18;2.40;99.90
7004;DHT22;3542;48.812;9.146;2023-01-23T12:26:20;2.40;99.90
7004;DHT22;3542;48.812;9.146;2023-01-23T12:34:19;2.70;99.90
7004;DHT22;3542;48.812;9.146;2023-01-23T12:39:55;3.10;99.90
7004;DHT22;3542;48.812;9.146;2023-01-23T12:47:36;3.40;99.90
7004;DHT22;3542;48.812;9.146;2023-01-23T12:50:26;3.50;99.90
7004;DHT22;3542;48.812;9.146;2023-01-23T12:53:00;3.70;99.90
7004;DHT22;3542;48.812;9.146;2023-01-23T12:55:34;3.70;99.90
7004;DHT22;3542;48.812;9.146;2023-01-23T12:58:00;3.80;99.90
7004;DHT22;3542;48.812;9.146;2023-01-23T13:01:09;3.80;99.90
7004;DHT22;3542;48.812;9.146;2023-01-23T13:11:33;3.70;99.90
7004;DHT22;3542;48.812;9.146;2023-01-23T13:14:23;3.60;99.90
7004;DHT22;3542;48.812;9.146;2023-01-23T13:16:51;3.60;99.90
7004;DHT22;3542;48.812;9.146;2023-01-23T13:19:25;3.70;99.90
7004;DHT22;3542;48.812;9.146;2023-01-23T13:22:23;3.70;99.90
7004;DHT22;3542;48.812;9.146;2023-01-23T13:28:47;3.90;99.90
7004;DHT22;3542;48.812;9.146;2023-01-23T13:31:03;3.90;99.90
7004;DHT22;3542;48.812;9.146;2023-01-23T13:36:11;3.80;99.90
7004;DHT22;3542;48.812;9.146;2023-01-23T13:38:37;3.80;99.90
7004;DHT22;3542;48.812;9.146;2023-01-23T13:49:47;3.50;99.90
7004;DHT22;3542;48.812;9.146;2023-01-23T13:52:24;3.40;99.90
7004;DHT22;3542;48.812;9.146;2023-01-23T13:55:18;3.40;99.90
7004;DHT22;3542;48.812;9.146;2023-01-23T13:58:05;3.50;99.90
7004;DHT22;3542;48.812;9.146;2023-01-23T14:00:33;3.40;99.90
7004;DHT22;3542;48.812;9.146;2023-01-23T14:03:14;3.40;99.90
7004;DHT22;3542;48.812;9.146;2023-01-23T14:06:09;3.50;99.90
7004;DHT22;3542;48.812;9.146;2023-01-23T14:08:52;3.40;99.90
7004;DHT22;3542;48.812;9.146;2023-01-23T14:11:19;3.40;99.90
7004;DHT22;3542;48.812;9.146;2023-01-23T14:13:50;3.50;99.90
7004;DHT22;3542;48.812;9.146;2023-01-23T14:16:16;3.50;99.90
7004;DHT22;3542;48.812;9.146;2023-01-23T14:18:50;3.50;99.90
7004;DHT22;3542;48.812;9.146;2023-01-23T14:21:25;3.50;99.90
7004;DHT22;3542;48.812;9.146;2023-01-23T14:23:56;3.50;99.90
7004;DHT22;3542;48.812;9.146;2023-01-23T14:26:25;3.40;99.90
7004;DHT22;3542;48.812;9.146;2023-01-23T14:29:03;3.30;99.90
7004;DHT22;3542;48.812;9.146;2023-01-23T14:31:31;3.30;99.90
7004;DHT22;3542;48.812;9.146;2023-01-23T14:34:04;3.20;99.90
7004;DHT22;3542;48.812;9.146;2023-01-23T14:36:32;3.30;99.90
7004;DHT22;3542;48.812;9.146;2023-01-23T14:38:59;3.20;99.90
7004;DHT22;3542;48.812;9.146;2023-01-23T14:41:30;3.20;99.90
7004;DHT22;3542;48.812;9.146;2023-01-23T14:43:57;3.20;99.90
7004;DHT22;3542;48.812;9.146;2023-01-23T14:46:35;3.20;99.90
7004;DHT22;3542;48.812;9.146;2023-01-23T14:49:01;3.10;99.90
7004;DHT22;3542;48.812;9.146;2023-01-23T14:51:28;3.10;99.90
7004;DHT22;3542;48.812;9.146;2023-01-23T14:56:35;3.00;99.90
7004;DHT22;3542;48.812;9.146;2023-01-23T14:59:03;3.00;99.90
7004;DHT22;3542;48.812;9.146;2023-01-23T15:01:30;3.00;99.90
7004;DHT22;3542;48.812;9.146;2023-01-23T15:04:03;2.90;99.90
7004;DHT22;3542;48.812;9.146;2023-01-23T15:06:30;3.00;99.90
7004;DHT22;3542;48.812;9.146;2023-01-23T15:09:12;3.00;99.90
7004;DHT22;3542;48.812;9.146;2023-01-23T15:11:38;3.10;99.90
7004;DHT22;3542;48.812;9.146;2023-01-23T15:14:04;3.10;99.90
7004;DHT22;3542;48.812;9.146;2023-01-23T15:16:34;3.10;99.90
7004;DHT22;3542;48.812;9.146;2023-01-23T15:19:07;3.00;99.90
7004;DHT22;3542;48.812;9.146;2023-01-23T15:21:42;3.00;99.90
7004;DHT22;3542;48.812;9.146;2023-01-23T15:26:35;2.80;99.90
7004;DHT22;3542;48.812;9.146;2023-01-23T15:37:00;2.80;99.90
7004;DHT22;3542;48.812;9.146;2023-01-23T15:44:38;2.70;99.90
7004;DHT22;3542;48.812;9.146;2023-01-23T15:47:04;2.70;99.90
7004;DHT22;3542;48.812;9.146;2023-01-23T15:49:32;2.80;99.90
7004;DHT22;3542;48.812;9.146;2023-01-23T15:51:59;2.80;99.90
7004;DHT22;3542;48.812;9.146;2023-01-23T15:54:34;2.70;99.90
7004;DHT22;3542;48.812;9.146;2023-01-23T15:57:00;2.70;99.90
7004;DHT22;3542;48.812;9.146;2023-01-23T15:59:26;2.70;99.90
7004;DHT22;3542;48.812;9.146;2023-01-23T16:01:53;2.70;99.90
7004;DHT22;3542;48.812;9.146;2023-01-23T16:04:18;2.70;99.90
7004;DHT22;3542;48.812;9.146;2023-01-23T16:06:45;2.70;99.90
7004;DHT22;3542;48.812;9.146;2023-01-23T16:09:20;2.70;99.90
7004;DHT22;3542;48.812;9.146;2023-01-23T16:11:46;2.70;99.90
7004;DHT22;3542;48.812;9.146;2023-01-23T16:14:16;2.70;99.90
7004;DHT22;3542;48.812;9.146;2023-01-23T16:16:41;2.70;99.90
7004;DHT22;3542;48.812;9.146;2023-01-23T16:19:07;2.70;99.90
7004;DHT22;3542;48.812;9.146;2023-01-23T16:21:32;2.60;99.90
7004;DHT22;3542;48.812;9.146;2023-01-23T16:23:58;2.60;99.90
7004;DHT22;3542;48.812;9.146;2023-01-23T16:26:26;2.60;99.90
7004;DHT22;3542;48.812;9.146;2023-01-23T16:28:53;2.70;99.90
7004;DHT22;3542;48.812;9.146;2023-01-23T16:31:18;2.60;99.90
7004;DHT22;3542;48.812;9.146;2023-01-23T16:33:44;2.70;99.90
7004;DHT22;3542;48.812;9.146;2023-01-23T16:36:17;2.60;99.90
7004;DHT22;3542;48.812;9.146;2023-01-23T16:38:53;2.60;99.90
7004;DHT22;3542;48.812;9.146;2023-01-23T16:41:21;2.60;99.90
7004;DHT22;3542;48.812;9.146;2023-01-23T16:43:47;2.60;99.90
7004;DHT22;3542;48.812;9.146;2023-01-23T16:46:12;2.50;99.90
7004;DHT22;3542;48.812;9.146;2023-01-23T16:48:38;2.50;99.90
7004;DHT22;3542;48.812;9.146;2023-01-23T16:51:10;2.40;99.90
7004;DHT22;3542;48.812;9.146;2023-01-23T16:53:41;2.40;99.90
7004;DHT22;3542;48.812;9.146;2023-01-23T16:58:41;2.30;99.90
7004;DHT22;3542;48.812;9.146;2023-01-23T17:01:15;2.30;99.90
7004;DHT22;3542;48.812;9.146;2023-01-23T17:03:43;2.40;99.90
7004;DHT22;3542;48.812;9.146;2023-01-23T17:06:13;2.30;99.90
7004;DHT22;3542;48.812;9.146;2023-01-23T17:08:39;2.30;99.90
7004;DHT22;3542;48.812;9.146;2023-01-23T17:11:04;2.30;99.90
7004;DHT22;3542;48.812;9.146;2023-01-23T17:13:31;2.30;99.90
7004;DHT22;3542;48.812;9.146;2023-01-23T17:15:59;2.30;99.90
7004;DHT22;3542;48.812;9.146;2023-01-23T17:18:35;2.40;99.90
7004;DHT22;3542;48.812;9.146;2023-01-23T17:21:03;2.40;99.90
7004;DHT22;3542;48.812;9.146;2023-01-23T17:23:30;2.40;99.90
7004;DHT22;3542;48.812;9.146;2023-01-23T17:25:55;2.40;99.90
7004;DHT22;3542;48.812;9.146;2023-01-23T17:28:21;2.40;99.90
7004;DHT22;3542;48.812;9.146;2023-01-23T17:30:49;2.40;99.90
7004;DHT22;3542;48.812;9.146;2023-01-23T17:33:21;2.40;99.90
7004;DHT22;3542;48.812;9.146;2023-01-23T17:35:47;2.40;99.90
7004;DHT22;3542;48.812;9.146;2023-01-23T17:38:20;2.40;99.90
7004;DHT22;3542;48.812;9.146;2023-01-23T17:40:46;2.40;99.90
7004;DHT22;3542;48.812;9.146;2023-01-23T17:43:15;2.40;99.90
7004;DHT22;3542;48.812;9.146;2023-01-23T17:45:43;2.40;99.90
7004;DHT22;3542;48.812;9.146;2023-01-23T17:48:11;2.40;99.90
7004;DHT22;3542;48.812;9.146;2023-01-23T17:50:38;2.40;99.90
7004;DHT22;3542;48.812;9.146;2023-01-23T17:53:05;2.40;99.90
7004;DHT22;3542;48.812;9.146;2023-01-23T17:55:31;2.50;99.90
7004;DHT22;3542;48.812;9.146;2023-01-23T17:57:57;2.40;99.90
7004;DHT22;3542;48.812;9.146;2023-01-23T18:00:22;2.40;99.90
7004;DHT22;3542;48.812;9.146;2023-01-23T18:02:59;2.40;99.90
7004;DHT22;3542;48.812;9.146;2023-01-23T18:05:26;2.50;99.90
7004;DHT22;3542;48.812;9.146;2023-01-23T18:07:52;2.40;99.90
7004;DHT22;3542;48.812;9.146;2023-01-23T18:10:18;2.40;99.90
7004;DHT22;3542;48.812;9.146;2023-01-23T18:12:47;2.40;99.90
7004;DHT22;3542;48.812;9.146;2023-01-23T18:15:18;2.50;99.90
7004;DHT22;3542;48.812;9.146;2023-01-23T18:20:30;2.50;99.90
7004;DHT22;3542;48.812;9.146;2023-01-23T18:22:57;2.50;99.90
7004;DHT22;3542;48.812;9.146;2023-01-23T18:25:24;2.50;99.90
7004;DHT22;3542;48.812;9.146;2023-01-23T18:27:54;2.40;99.90
7004;DHT22;3542;48.812;9.146;2023-01-23T18:30:32;2.40;99.90
7004;DHT22;3542;48.812;9.146;2023-01-23T18:41:16;2.50;99.90
7004;DHT22;3542;48.812;9.146;2023-01-23T18:43:59;2.50;99.90
7004;DHT22;3542;48.812;9.146;2023-01-23T18:46:27;2.50;99.90
7004;DHT22;3542;48.812;9.146;2023-01-23T18:48:53;2.40;99.90
7004;DHT22;3542;48.812;9.146;2023-01-23T18:54:11;2.50;99.90
7004;DHT22;3542;48.812;9.146;2023-01-23T19:02:28;2.60;99.90
7004;DHT22;3542;48.812;9.146;2023-01-23T19:07:44;2.60;99.90
7004;DHT22;3542;48.812;9.146;2023-01-23T19:10:19;2.60;99.90
7004;DHT22;3542;48.812;9.146;2023-01-23T19:13:06;2.50;99.90
7004;DHT22;3542;48.812;9.146;2023-01-23T19:15:56;2.60;99.90
7004;DHT22;3542;48.812;9.146;2023-01-23T19:18:37;2.50;99.90
7004;DHT22;3542;48.812;9.146;2023-01-23T19:21:13;2.50;99.90
7004;DHT22;3542;48.812;9.146;2023-01-23T19:23:43;2.50;99.90
7004;DHT22;3542;48.812;9.146;2023-01-23T19:26:13;2.50;99.90
7004;DHT22;3542;48.812;9.146;2023-01-23T19:28:39;2.50;99.90
7004;DHT22;3542;48.812;9.146;2023-01-23T19:31:06;2.50;99.90
7004;DHT22;3542;48.812;9.146;2023-01-23T19:33:36;2.50;99.90
7004;DHT22;3542;48.812;9.146;2023-01-23T19:36:01;2.50;99.90
7004;DHT22;3542;48.812;9.146;2023-01-23T19:38:28;2.60;99.90
7004;DHT22;3542;48.812;9.146;2023-01-23T19:40:54;2.60;99.90
7004;DHT22;3542;48.812;9.146;2023-01-23T19:43:19;2.60;99.90
7004;DHT22;3542;48.812;9.146;2023-01-23T19:45:45;2.60;99.90
7004;DHT22;3542;48.812;9.146;2023-01-23T19:48:11;2.60;99.90
7004;DHT22;3542;48.812;9.146;2023-01-23T19:50:37;2.60;99.90
7004;DHT22;3542;48.812;9.146;2023-01-23T19:53:03;2.60;99.90
7004;DHT22;3542;48.812;9.146;2023-01-23T19:55:33;2.60;99.90
7004;DHT22;3542;48.812;9.146;2023-01-23T19:57:59;2.60;99.90
7004;DHT22;3542;48.812;9.146;2023-01-23T20:00:26;2.70;99.90
7004;DHT22;3542;48.812;9.146;2023-01-23T20:02:52;2.60;99.90
7004;DHT22;3542;48.812;9.146;2023-01-23T20:05:19;2.70;99.90
7004;DHT22;3542;48.812;9.146;2023-01-23T20:07:44;2.60;99.90
7004;DHT22;3542;48.812;9.146;2023-01-23T20:10:10;2.70;99.90
7004;DHT22;3542;48.812;9.146;2023-01-23T20:12:44;2.60;99.90
7004;DHT22;3542;48.812;9.146;2023-01-23T20:15:12;2.70;99.90